West Fork, Arkansas
Current Conditions -  °F | °C
As of 1:53 AM on Tuesday 27 Jan 2015 (Local Time) from KFYV Reporting Station
Clear Clear  
Wind Chill: 33°   Ceiling: Unl
Heat Index: 33°   Visibility: 10mi
Dew Point: 30°   Wind: 3mph
Humidity: 89%   Direction: 180°S
Pressure: 30.06"   Gusts: NA
Location:  35.92°N, 94.19°W
Report Text: KFYV 270753Z AUTO 18003KT 10SM CLR 01/M01 A3006 RMK AO2 SLP179 T00061011
Loading
Personal Weather Stations






























Interactive Weather Map New forecast layout! Learn more

10-Day Weather Forecast

Advertisements
Track Severe Weather on mobile